»·PEaware :: ASA533 KGEG-KSEA

ASA533 :: KGEG-KSEA

FLIGHT INFORMATION

Flight Status: Arrived
Operator:
Alaska Airlines
More flights by this operator :: More flights under this callsign
Pilot: Ryan L. (9775)
Aircraft: MCDONNELL-DOUGLAS MD-88
(MD88)
More flights by this aircraft type
Origin: KGEG Spokane Intl
United States
Destination: KSEA Seattle-Tacoma Intl
United States
More flights between these airports :: More routes between these airports
Route: TEMPL GLASR1
File this flight plan on PilotEdge
Remarks:
Altitude:
(Current/Filed)
26,000ft
Speed:
(Current/Filed)
400kts
Departed: 04-Dec-17 06:02 PM
Arrived: 04-Dec-17 06:43 PM
Distance/Time
Traveled:
194nm/0:41
Distance/Time
To Go:
Arrived

Flight Plot

Page will automatically refresh every two minutes.

Flight plan parsing failed; only flown route is shown


Map Options




Map Legend


Flown Route
Filed Route
Departure Airport
Arrival Airport
Navaid (VOR, NDB)
Fix

Horizontal Profiles

Position Reports

Time Latitude Longitude Heading Altitude Ground
Speed
04-Dec-17 17:37 47.623307 -117.539257 0 2381ft 0kts
04-Dec-17 17:38 47.623307 -117.539257 0 2381ft 0kts
04-Dec-17 17:39 47.623307 -117.539257 0 2381ft 0kts
04-Dec-17 17:40 47.623307 -117.539257 0 2381ft 0kts
04-Dec-17 17:41 47.623307 -117.539257 0 2381ft 0kts
04-Dec-17 17:42 47.623307 -117.539257 0 2381ft 0kts
04-Dec-17 17:43 47.623307 -117.539257 0 2381ft 0kts
04-Dec-17 17:44 47.623307 -117.539257 0 2381ft 0kts
04-Dec-17 17:45 47.623307 -117.539257 0 2381ft 0kts
04-Dec-17 17:46 47.623307 -117.539257 0 2381ft 0kts
04-Dec-17 17:47 47.623307 -117.539257 0 2381ft 0kts
04-Dec-17 17:48 47.623307 -117.539257 0 2381ft 0kts
04-Dec-17 17:49 47.623307 -117.539257 0 2381ft 0kts
04-Dec-17 17:50 47.623026 -117.539268 13 2381ft 2kts
04-Dec-17 17:51 47.622636 -117.539893 82 2381ft 2kts
04-Dec-17 17:52 47.622639 -117.540283 90 2381ft 0kts
04-Dec-17 17:53 47.622639 -117.540283 90 2381ft 0kts
04-Dec-17 17:54 47.622639 -117.540283 90 2381ft 0kts
04-Dec-17 17:55 47.622639 -117.540283 90 2381ft 0kts
04-Dec-17 17:56 47.622639 -117.540283 90 2381ft 0kts
04-Dec-17 17:57 47.621904 -117.536771 97 2381ft 13kts
04-Dec-17 17:58 47.624763 -117.532024 45 2381ft 17kts
04-Dec-17 17:59 47.627534 -117.527877 45 2381ft 16kts
04-Dec-17 18:00 47.630714 -117.523047 45 2381ft 12kts
04-Dec-17 18:01 47.631948 -117.519579 131 2381ft 10kts
04-Dec-17 18:02 47.631889 -117.519484 132 2381ft 0kts
04-Dec-17 18:03 47.631889 -117.519484 132 2381ft 0kts
04-Dec-17 18:04 47.631889 -117.519484 132 2381ft 0kts
04-Dec-17 18:05 47.631889 -117.519484 132 2381ft 0kts
04-Dec-17 18:06 47.630851 -117.518873 224 2381ft 0kts
04-Dec-17 18:07 47.628964 -117.521677 224 2381ft 70kts
04-Dec-17 18:08 47.601452 -117.563940 220 3181ft 166kts
04-Dec-17 18:09 47.569794 -117.617232 254 5309ft 196kts
04-Dec-17 18:10 47.573047 -117.700153 277 7993ft 212kts
04-Dec-17 18:11 47.596794 -117.788018 304 9801ft 264kts
04-Dec-17 18:12 47.632732 -117.888132 284 12023ft 292kts
04-Dec-17 18:13 47.645990 -118.015770 281 13959ft 331kts
04-Dec-17 18:14 47.654024 -118.153796 281 16316ft 344kts
04-Dec-17 18:15 47.661596 -118.297377 281 18697ft 348kts
04-Dec-17 18:16 47.669387 -118.434455 271 21271ft 335kts
04-Dec-17 18:17 47.677088 -118.583327 267 21357ft 394kts
04-Dec-17 18:18 47.684904 -118.729454 270 21869ft 431kts
04-Dec-17 18:19 47.694969 -118.911794 279 23126ft 448kts
04-Dec-17 18:20 47.705990 -119.090506 280 24954ft 444kts
04-Dec-17 18:21 47.716820 -119.275395 280 26089ft 459kts
04-Dec-17 18:22 47.728084 -119.455914 284 26485ft 414kts
04-Dec-17 18:23 47.738105 -119.582579 285 26499ft 406kts
04-Dec-17 18:24 47.750157 -119.740180 284 26504ft 407kts
04-Dec-17 18:25 47.762527 -119.903310 284 26503ft 407kts
04-Dec-17 18:26 47.775427 -120.070241 283 26506ft 405kts
04-Dec-17 18:27 47.788328 -120.236122 282 26504ft 407kts
04-Dec-17 18:28 47.799954 -120.403008 282 26504ft 406kts
04-Dec-17 18:29 47.811618 -120.569589 282 25866ft 404kts
04-Dec-17 18:30 47.822971 -120.728978 281 23994ft 385kts
04-Dec-17 18:31 47.832302 -120.858371 281 22561ft 369kts
04-Dec-17 18:32 47.842155 -121.007002 280 20411ft 363kts
04-Dec-17 18:33 47.851898 -121.154983 280 18212ft 358kts
04-Dec-17 18:34 47.861266 -121.297730 280 16517ft 340kts
04-Dec-17 18:35 47.869396 -121.429958 280 14983ft 323kts
04-Dec-17 18:36 47.877441 -121.559811 280 13509ft 307kts
04-Dec-17 18:37 47.884831 -121.681903 273 12179ft 294kts
04-Dec-17 18:38 47.837845 -121.773815 224 11988ft 290kts
04-Dec-17 18:39 47.775525 -121.854862 226 10475ft 303kts
04-Dec-17 18:40 47.712203 -121.939960 225 8701ft 315kts
04-Dec-17 18:41 47.676412 -122.048660 265 6834ft 312kts
04-Dec-17 18:42 47.668174 -122.174216 265 5453ft 297kts
04-Dec-17 18:43 47.650714 -122.277984 214 4259ft 242kts
04-Dec-17 18:44 47.594067 -122.306372 181 3050ft 206kts
04-Dec-17 18:45 47.542605 -122.307139 180 1955ft 159kts
04-Dec-17 18:46 47.501344 -122.307638 180 1186ft 145kts
04-Dec-17 18:47 47.460841 -122.307769 181 440ft 143kts
04-Dec-17 18:48 47.443558 -122.307534 118 439ft 4kts
04-Dec-17 18:49 47.446199 -122.306241 13 439ft 13kts
04-Dec-17 18:50 47.446468 -122.304696 128 439ft 2kts
04-Dec-17 18:51 47.446415 -122.304602 129 439ft 0kts

Navigation Log

Ident Type
Flight plan parsing failed, navigation log unavailable